Time;durP1;ratioP1;P1;durP2;ratioP2;P2;SDS_P1;SDS_P2;PMS_P1;PMS_P2;Temp;Humidity;BMP_temperature;BMP_pressure;BME280_temperature;BME280_humidity;BME280_pressure;Samples;Min_cycle;Max_cycle;Signal;HPM_P1;HPM_P2
2021/11/29 00:02:25;;;;;;;;;;;12.30;99.90;;;;;;5116902;28;900;-52
2021/11/29 00:04:52;;;;;;;;;;;12.30;99.90;;;;;;5116412;28;900;-52
2021/11/29 00:07:18;;;;;;;;;;;12.30;99.90;;;;;;5117195;28;1961;-52
2021/11/29 00:09:44;;;;;;;;;;;12.30;99.90;;;;;;5116793;28;772;-52
2021/11/29 00:12:10;;;;;;;;;;;12.30;99.90;;;;;;5116359;28;914;-52
2021/11/29 00:14:36;;;;;;;;;;;12.30;99.90;;;;;;5116641;28;887;-52
2021/11/29 00:17:02;;;;;;;;;;;12.30;99.90;;;;;;5098725;28;956;-52
2021/11/29 00:19:28;;;;;;;;;;;12.20;99.90;;;;;;5116734;28;824;-52
2021/11/29 00:21:54;;;;;;;;;;;12.20;99.90;;;;;;5097939;28;852;-52
2021/11/29 00:24:19;;;;;;;;;;;12.20;99.90;;;;;;5097896;28;882;-52
2021/11/29 00:26:45;;;;;;;;;;;12.20;99.90;;;;;;5112045;28;1961;-52
2021/11/29 00:29:11;;;;;;;;;;;12.10;99.90;;;;;;5116375;28;871;-52
2021/11/29 00:31:37;;;;;;;;;;;12.10;99.90;;;;;;5116342;28;910;-52
2021/11/29 00:34:03;;;;;;;;;;;12.10;99.90;;;;;;5115945;28;1149;-52
2021/11/29 00:36:29;;;;;;;;;;;12.10;99.90;;;;;;5116566;28;871;-52
2021/11/29 00:38:55;;;;;;;;;;;12.10;99.90;;;;;;5116149;28;869;-52
2021/11/29 00:41:21;;;;;;;;;;;12.10;99.90;;;;;;5116086;28;785;-52
2021/11/29 00:43:47;;;;;;;;;;;12.00;99.90;;;;;;5098162;28;1034;-53
2021/11/29 00:46:13;;;;;;;;;;;12.10;99.90;;;;;;5115710;28;927;-54
2021/11/29 00:48:39;;;;;;;;;;;12.00;99.90;;;;;;5116361;28;1977;-53
2021/11/29 00:51:05;;;;;;;;;;;12.00;99.90;;;;;;5114434;28;1569;-53
2021/11/29 00:53:31;;;;;;;;;;;12.00;99.90;;;;;;5116380;28;1135;-53
2021/11/29 00:55:57;;;;;;;;;;;12.00;99.90;;;;;;5115969;28;1136;-53
2021/11/29 00:58:23;;;;;;;;;;;12.00;99.90;;;;;;5116106;28;827;-53
2021/11/29 01:00:49;;;;;;;;;;;12.00;99.90;;;;;;5115578;28;924;-53
2021/11/29 01:03:15;;;;;;;;;;;12.00;99.90;;;;;;5097982;28;869;-54
2021/11/29 01:05:41;;;;;;;;;;;11.90;99.90;;;;;;5092638;28;1285;-53
2021/11/29 01:08:07;;;;;;;;;;;11.90;99.90;;;;;;5096981;28;1906;-53
2021/11/29 01:10:32;;;;;;;;;;;11.90;99.90;;;;;;5097322;28;904;-53
2021/11/29 01:12:59;;;;;;;;;;;11.90;99.90;;;;;;5096734;28;1071;-53
2021/11/29 01:15:28;;;;;;;;;;;11.90;99.90;;;;;;5097105;28;970;-54
2021/11/29 01:17:54;;;;;;;;;;;11.80;99.90;;;;;;5096932;28;844;-53
2021/11/29 01:20:20;;;;;;;;;;;11.80;99.90;;;;;;5096897;28;975;-53
2021/11/29 01:22:47;;;;;;;;;;;11.80;99.90;;;;;;5097106;28;986;-53
2021/11/29 01:25:13;;;;;;;;;;;11.80;99.90;;;;;;5081830;28;863;-53
2021/11/29 01:27:39;;;;;;;;;;;11.80;99.90;;;;;;5115006;28;1967;-53
2021/11/29 01:30:08;;;;;;;;;;;11.80;99.90;;;;;;5115788;28;898;-53
2021/11/29 01:32:34;;;;;;;;;;;11.80;99.90;;;;;;5115169;28;953;-53
2021/11/29 01:35:01;;;;;;;;;;;11.70;99.90;;;;;;5115366;28;1087;-54
2021/11/29 01:37:27;;;;;;;;;;;11.70;99.90;;;;;;5116650;28;832;-54
2021/11/29 01:39:52;;;;;;;;;;;11.70;99.90;;;;;;5119705;28;848;-53
2021/11/29 01:42:18;;;;;;;;;;;11.70;99.90;;;;;;5119420;28;867;-53
2021/11/29 01:44:44;;;;;;;;;;;11.70;99.90;;;;;;5119641;28;890;-53
2021/11/29 01:47:10;;;;;;;;;;;11.70;99.90;;;;;;5119598;28;1959;-53
2021/11/29 01:49:36;;;;;;;;;;;11.70;99.90;;;;;;5120185;28;845;-53
2021/11/29 01:52:02;;;;;;;;;;;11.60;99.90;;;;;;5120013;28;831;-53
2021/11/29 01:54:29;;;;;;;;;;;11.60;99.90;;;;;;5119657;28;796;-53
2021/11/29 01:56:55;;;;;;;;;;;11.60;99.90;;;;;;5119139;28;1107;-53
2021/11/29 01:59:21;;;;;;;;;;;11.60;99.90;;;;;;5119396;28;875;-53
2021/11/29 02:01:47;;;;;;;;;;;11.60;99.90;;;;;;5119559;28;876;-53
2021/11/29 02:04:13;;;;;;;;;;;11.60;99.90;;;;;;5106791;28;1157;-53
2021/11/29 02:06:40;;;;;;;;;;;11.60;99.90;;;;;;5100489;28;809;-53
2021/11/29 02:09:07;;;;;;;;;;;11.50;99.90;;;;;;5107095;28;1977;-53
2021/11/29 02:11:33;;;;;;;;;;;11.50;99.90;;;;;;5100311;28;939;-53
2021/11/29 02:14:00;;;;;;;;;;;11.50;99.90;;;;;;5119267;28;862;-53
2021/11/29 02:16:27;;;;;;;;;;;11.50;99.90;;;;;;5118742;28;868;-53
2021/11/29 02:18:53;;;;;;;;;;;11.50;99.90;;;;;;5119038;28;823;-53
2021/11/29 02:21:20;;;;;;;;;;;11.50;99.90;;;;;;5100267;28;908;-53
2021/11/29 02:23:48;;;;;;;;;;;11.50;99.90;;;;;;5100298;28;871;-53
2021/11/29 02:26:14;;;;;;;;;;;11.40;99.90;;;;;;5110887;28;918;-53
2021/11/29 02:28:42;;;;;;;;;;;11.40;99.90;;;;;;5118364;28;1965;-53
2021/11/29 02:31:10;;;;;;;;;;;11.40;99.90;;;;;;5118386;28;866;-53
2021/11/29 02:33:36;;;;;;;;;;;11.40;99.90;;;;;;5118702;28;1005;-53
2021/11/29 02:36:03;;;;;;;;;;;11.40;99.90;;;;;;5118909;28;933;-53
2021/11/29 02:38:29;;;;;;;;;;;11.40;99.90;;;;;;5118247;28;991;-54
2021/11/29 02:40:54;;;;;;;;;;;11.40;99.90;;;;;;5118532;28;1275;-54
2021/11/29 02:43:20;;;;;;;;;;;11.30;99.90;;;;;;5118314;28;799;-53
2021/11/29 02:45:46;;;;;;;;;;;11.30;99.90;;;;;;5118399;28;1646;-53
2021/11/29 02:48:13;;;;;;;;;;;11.30;99.90;;;;;;5118353;28;1905;-53
2021/11/29 02:50:39;;;;;;;;;;;11.30;99.90;;;;;;5118747;28;826;-52
2021/11/29 02:53:06;;;;;;;;;;;11.30;99.90;;;;;;5118457;28;1191;-52
2021/11/29 02:55:33;;;;;;;;;;;11.30;99.90;;;;;;5113358;28;1092;-52
2021/11/29 02:58:18;;;;;;;;;;;11.30;99.90;;;;;;5102298;28;1458;-52
2021/11/29 03:01:04;;;;;;;;;;;11.30;99.90;;;;;;5103477;28;1443;-52
2021/11/29 03:03:52;;;;;;;;;;;11.30;99.90;;;;;;5103291;28;1427;-52
2021/11/29 03:06:38;;;;;;;;;;;11.30;99.90;;;;;;5103443;28;1456;-52
2021/11/29 03:09:24;;;;;;;;;;;11.30;99.90;;;;;;5103127;28;1914;-52
2021/11/29 03:12:10;;;;;;;;;;;11.30;99.90;;;;;;5103126;28;1478;-52
2021/11/29 03:14:56;;;;;;;;;;;11.20;99.90;;;;;;5090036;28;1427;-52
2021/11/29 03:17:42;;;;;;;;;;;11.20;99.90;;;;;;5098464;28;1479;-52
2021/11/29 03:20:28;;;;;;;;;;;11.20;99.90;;;;;;5089347;28;1582;-52
2021/11/29 03:23:14;;;;;;;;;;;11.20;99.90;;;;;;5103325;28;1441;-52
2021/11/29 03:26:01;;;;;;;;;;;11.20;99.90;;;;;;5103218;28;1451;-52
2021/11/29 03:28:48;;;;;;;;;;;11.20;99.90;;;;;;5087583;28;1906;-52
2021/11/29 03:31:34;;;;;;;;;;;11.20;99.90;;;;;;5086082;28;1475;-52
2021/11/29 03:34:21;;;;;;;;;;;11.20;99.90;;;;;;5100978;28;1636;-52
2021/11/29 03:37:07;;;;;;;;;;;11.20;99.90;;;;;;5103135;28;1466;-52
2021/11/29 03:39:53;;;;;;;;;;;11.10;99.90;;;;;;5114147;28;1543;-52
2021/11/29 03:42:39;;;;;;;;;;;11.10;99.90;;;;;;5102554;28;1655;-52
2021/11/29 03:45:25;;;;;;;;;;;11.10;99.90;;;;;;5102727;28;1554;-52
2021/11/29 03:48:11;;;;;;;;;;;11.10;99.90;;;;;;5102659;28;1906;-52
2021/11/29 03:50:57;;;;;;;;;;;11.10;99.90;;;;;;5102669;28;1598;-52
2021/11/29 03:53:43;;;;;;;;;;;11.10;99.90;;;;;;5102748;28;1710;-52
2021/11/29 03:56:29;;;;;;;;;;;11.10;99.90;;;;;;5102226;28;1437;-52
2021/11/29 03:59:15;;;;;;;;;;;11.10;99.90;;;;;;5102350;28;1636;-52
2021/11/29 04:02:01;;;;;;;;;;;11.00;99.90;;;;;;5102427;28;1560;-52
2021/11/29 04:04:47;;;;;;;;;;;11.00;99.90;;;;;;5096908;28;1642;-52
2021/11/29 04:07:33;;;;;;;;;;;11.00;99.90;;;;;;5100779;28;1909;-51
2021/11/29 04:10:19;;;;;;;;;;;11.00;99.90;;;;;;5102293;28;1471;-52
2021/11/29 04:13:05;;;;;;;;;;;11.00;99.90;;;;;;5101976;28;1642;-52
2021/11/29 04:15:50;;;;;;;;;;;11.00;99.90;;;;;;5101843;28;2062;-52
2021/11/29 04:18:36;;;;;;;;;;;11.00;99.90;;;;;;5102221;28;1430;-52
2021/11/29 04:21:22;;;;;;;;;;;10.90;99.90;;;;;;5101935;28;1422;-52
2021/11/29 04:24:08;;;;;;;;;;;10.90;99.90;;;;;;5102170;28;1434;-52
2021/11/29 04:26:56;;;;;;;;;;;10.90;99.90;;;;;;5101599;28;1461;-52
2021/11/29 04:29:44;;;;;;;;;;;10.90;99.90;;;;;;5102086;28;1614;-52
2021/11/29 04:32:31;;;;;;;;;;;10.90;99.90;;;;;;5101570;28;1457;-52
2021/11/29 04:35:18;;;;;;;;;;;10.90;99.90;;;;;;5101739;28;1383;-52
2021/11/29 04:38:04;;;;;;;;;;;10.90;99.90;;;;;;5101958;28;1525;-52
2021/11/29 04:40:50;;;;;;;;;;;10.80;99.90;;;;;;5101711;28;1510;-53
2021/11/29 04:43:36;;;;;;;;;;;10.80;99.90;;;;;;5101430;28;1540;-52
2021/11/29 04:46:22;;;;;;;;;;;10.80;99.90;;;;;;5101436;28;1669;-52
2021/11/29 04:49:07;;;;;;;;;;;10.80;99.90;;;;;;5101207;28;1906;-52
2021/11/29 04:51:53;;;;;;;;;;;10.80;99.90;;;;;;5089404;28;1442;-52
2021/11/29 04:54:39;;;;;;;;;;;10.80;99.90;;;;;;5070317;28;1776;-52
2021/11/29 04:57:25;;;;;;;;;;;10.80;99.90;;;;;;5082024;28;1434;-53
2021/11/29 05:00:12;;;;;;;;;;;10.80;99.90;;;;;;5095380;28;1448;-52
2021/11/29 05:02:58;;;;;;;;;;;10.70;99.90;;;;;;5101390;28;1391;-52
2021/11/29 05:05:44;;;;;;;;;;;10.70;99.90;;;;;;5101310;28;1415;-51
2021/11/29 05:08:31;;;;;;;;;;;10.70;99.90;;;;;;5101061;28;1961;-53
2021/11/29 05:11:17;;;;;;;;;;;10.70;99.90;;;;;;5100960;28;1538;-52
2021/11/29 05:14:03;;;;;;;;;;;10.70;99.90;;;;;;5100872;28;1438;-51
2021/11/29 05:16:49;;;;;;;;;;;10.70;99.90;;;;;;5087247;28;1466;-51
2021/11/29 05:19:35;;;;;;;;;;;10.70;99.90;;;;;;5089763;28;1578;-52
2021/11/29 05:22:21;;;;;;;;;;;10.70;99.90;;;;;;5096129;28;1672;-52
2021/11/29 05:25:07;;;;;;;;;;;10.70;99.90;;;;;;5100675;28;1403;-52
2021/11/29 05:27:53;;;;;;;;;;;10.70;99.90;;;;;;5129229;27;1910;-51
2021/11/29 05:30:39;;;;;;;;;;;10.60;99.90;;;;;;5101043;28;1425;-52
2021/11/29 05:33:25;;;;;;;;;;;10.60;99.90;;;;;;5101050;28;1568;-52
2021/11/29 05:36:11;;;;;;;;;;;10.60;99.90;;;;;;5100892;28;1442;-52
2021/11/29 05:38:57;;;;;;;;;;;10.60;99.90;;;;;;5100529;28;1454;-52
2021/11/29 05:41:45;;;;;;;;;;;10.60;99.90;;;;;;5100772;28;1443;-52
2021/11/29 05:44:31;;;;;;;;;;;10.60;99.90;;;;;;5100992;28;1442;-52
2021/11/29 05:47:18;;;;;;;;;;;10.60;99.90;;;;;;5095004;28;1630;-52
2021/11/29 05:50:05;;;;;;;;;;;10.60;99.90;;;;;;5086899;28;1636;-51
2021/11/29 05:52:51;;;;;;;;;;;10.60;99.90;;;;;;5100450;28;1728;-51
2021/11/29 05:55:37;;;;;;;;;;;10.60;99.90;;;;;;5100290;28;1442;-52
2021/11/29 05:58:23;;;;;;;;;;;10.60;99.90;;;;;;5100110;28;1684;-52
2021/11/29 06:01:09;;;;;;;;;;;10.60;99.90;;;;;;5100734;28;1611;-52
2021/11/29 06:03:55;;;;;;;;;;;10.70;99.90;;;;;;5100888;28;1451;-52
2021/11/29 06:06:42;;;;;;;;;;;10.80;99.90;;;;;;5084347;28;1470;-52
2021/11/29 06:09:28;;;;;;;;;;;10.90;99.90;;;;;;5099207;28;1906;-52
2021/11/29 06:12:14;;;;;;;;;;;11.00;99.90;;;;;;5100315;28;1530;-51
2021/11/29 06:15:00;;;;;;;;;;;11.10;99.90;;;;;;5100642;28;1667;-51
2021/11/29 06:17:46;;;;;;;;;;;11.30;99.90;;;;;;5100122;28;1705;-51
2021/11/29 06:20:32;;;;;;;;;;;11.40;99.90;;;;;;5100269;28;1420;-53
2021/11/29 06:23:18;;;;;;;;;;;11.60;99.90;;;;;;5101024;28;1434;-52
2021/11/29 06:26:04;;;;;;;;;;;11.80;99.90;;;;;;5104201;28;2157;-52
2021/11/29 06:28:50;;;;;;;;;;;12.00;99.90;;;;;;5103761;28;1965;-52
2021/11/29 06:31:36;;;;;;;;;;;12.20;99.90;;;;;;5104136;28;1678;-52
2021/11/29 06:34:25;;;;;;;;;;;12.50;99.90;;;;;;5104244;28;1455;-52
2021/11/29 06:37:11;;;;;;;;;;;12.60;99.90;;;;;;5103786;28;1538;-52
2021/11/29 06:39:58;;;;;;;;;;;12.80;99.90;;;;;;5103745;28;1565;-52
2021/11/29 06:42:43;;;;;;;;;;;13.00;99.90;;;;;;5103767;28;1376;-52
2021/11/29 06:45:29;;;;;;;;;;;13.20;99.90;;;;;;5103938;28;1458;-52
2021/11/29 06:48:15;;;;;;;;;;;13.40;99.90;;;;;;5103850;28;1901;-52
2021/11/29 06:51:01;;;;;;;;;;;13.50;99.90;;;;;;5103818;28;1431;-52
2021/11/29 06:53:47;;;;;;;;;;;13.60;99.90;;;;;;5089093;28;1556;-54
2021/11/29 06:56:33;;;;;;;;;;;13.80;99.90;;;;;;5101735;28;1428;-54
2021/11/29 06:59:19;;;;;;;;;;;13.90;99.90;;;;;;5103354;28;1431;-53
2021/11/29 07:02:06;;;;;;;;;;;14.00;99.90;;;;;;5103667;28;1589;-53
2021/11/29 07:04:53;;;;;;;;;;;14.00;99.90;;;;;;5103673;28;1395;-52
2021/11/29 07:07:38;;;;;;;;;;;14.20;99.90;;;;;;5103515;28;1969;-52
2021/11/29 07:10:25;;;;;;;;;;;14.30;99.90;;;;;;5089161;28;2176;-52
2021/11/29 07:13:11;;;;;;;;;;;14.30;99.90;;;;;;5103139;28;1399;-52
2021/11/29 07:15:57;;;;;;;;;;;14.40;99.90;;;;;;5103418;28;1710;-52
2021/11/29 07:18:43;;;;;;;;;;;14.40;99.90;;;;;;5103256;28;1629;-52
2021/11/29 07:21:29;;;;;;;;;;;14.50;99.90;;;;;;5103188;28;1427;-52
2021/11/29 07:24:15;;;;;;;;;;;14.40;99.90;;;;;;5087906;28;1580;-52
2021/11/29 07:27:01;;;;;;;;;;;14.50;99.90;;;;;;5101107;28;1639;-52
2021/11/29 07:29:47;;;;;;;;;;;14.50;99.90;;;;;;5102873;28;1901;-52
2021/11/29 07:32:33;;;;;;;;;;;14.50;99.90;;;;;;5103164;28;1655;-52
2021/11/29 07:35:19;;;;;;;;;;;14.40;99.90;;;;;;5102033;28;1482;-52
2021/11/29 07:38:05;;;;;;;;;;;14.30;99.90;;;;;;5102981;28;1495;-52
2021/11/29 07:40:51;;;;;;;;;;;14.30;99.90;;;;;;5102977;28;1808;-52
2021/11/29 07:43:37;;;;;;;;;;;14.20;99.90;;;;;;5102164;28;1435;-52
2021/11/29 07:46:23;;;;;;;;;;;14.10;99.90;;;;;;5102931;28;1459;-52
2021/11/29 07:49:09;;;;;;;;;;;14.00;99.90;;;;;;5102342;28;1901;-52
2021/11/29 07:51:54;;;;;;;;;;;13.90;99.90;;;;;;5103421;28;1466;-52
2021/11/29 07:54:41;;;;;;;;;;;13.80;99.90;;;;;;5083572;28;1451;-52
2021/11/29 07:57:27;;;;;;;;;;;13.70;99.90;;;;;;5083125;28;1501;-52
2021/11/29 08:00:19;;;;;;;;;;;13.60;99.90;;;;;;5096903;28;1547;-52
2021/11/29 08:03:05;;;;;;;;;;;13.50;99.90;;;;;;5102422;28;1413;-52
2021/11/29 08:05:51;;;;;;;;;;;13.50;99.90;;;;;;5102739;28;1630;-52
2021/11/29 08:08:37;;;;;;;;;;;13.40;99.90;;;;;;5102003;28;1893;-52
2021/11/29 08:11:23;;;;;;;;;;;13.40;99.90;;;;;;5102238;28;1387;-54
2021/11/29 08:14:12;;;;;;;;;;;13.40;99.90;;;;;;5102120;28;1664;-52
2021/11/29 08:16:58;;;;;;;;;;;13.40;99.90;;;;;;5101857;28;1406;-53
2021/11/29 08:19:44;;;;;;;;;;;13.40;99.90;;;;;;5102308;28;1444;-52
2021/11/29 08:22:30;;;;;;;;;;;13.50;99.90;;;;;;5087495;28;1502;-52
2021/11/29 08:25:16;;;;;;;;;;;13.60;99.90;;;;;;5086525;28;1681;-52
2021/11/29 08:28:02;;;;;;;;;;;13.70;99.90;;;;;;5101424;28;1974;-52
2021/11/29 08:30:48;;;;;;;;;;;13.90;99.90;;;;;;5102089;28;1640;-52
2021/11/29 08:33:34;;;;;;;;;;;14.00;99.90;;;;;;5087407;28;1435;-53
2021/11/29 08:36:20;;;;;;;;;;;14.10;99.90;;;;;;5101872;28;1550;-53
2021/11/29 08:39:06;;;;;;;;;;;14.20;99.90;;;;;;5101805;28;1407;-53
2021/11/29 08:41:52;;;;;;;;;;;14.20;99.90;;;;;;5101755;28;1675;-52
2021/11/29 08:44:38;;;;;;;;;;;14.30;99.90;;;;;;5101278;28;1449;-52
2021/11/29 08:47:24;;;;;;;;;;;14.30;99.90;;;;;;5101554;28;1423;-53
2021/11/29 08:50:10;;;;;;;;;;;14.30;99.90;;;;;;5101222;28;1905;-52
2021/11/29 08:52:57;;;;;;;;;;;14.30;99.90;;;;;;5101240;28;1672;-53
2021/11/29 08:55:43;;;;;;;;;;;14.20;99.90;;;;;;5101757;28;1423;-53
2021/11/29 08:58:29;;;;;;;;;;;14.20;99.90;;;;;;5091476;28;1590;-52
2021/11/29 09:01:15;;;;;;;;;;;14.10;99.90;;;;;;5084310;28;1436;-52
2021/11/29 09:04:01;;;;;;;;;;;14.00;99.90;;;;;;5099822;28;1555;-52
2021/11/29 09:06:47;;;;;;;;;;;13.90;99.90;;;;;;5101270;28;1668;-52
2021/11/29 09:09:33;;;;;;;;;;;13.80;99.90;;;;;;5100907;28;1964;-53
2021/11/29 09:12:19;;;;;;;;;;;13.80;99.90;;;;;;5100980;28;1415;-54
2021/11/29 09:15:08;;;;;;;;;;;13.70;99.90;;;;;;5096709;28;1479;-52
2021/11/29 09:17:54;;;;;;;;;;;13.60;99.90;;;;;;5084710;28;1696;-52
2021/11/29 09:20:40;;;;;;;;;;;13.50;99.90;;;;;;5085255;28;1539;-52
2021/11/29 09:23:27;;;;;;;;;;;13.50;99.90;;;;;;5085384;28;1392;-53
2021/11/29 09:26:13;;;;;;;;;;;13.40;99.90;;;;;;5084853;28;1515;-52
2021/11/29 09:28:59;;;;;;;;;;;13.30;99.90;;;;;;5085993;28;1969;-52
2021/11/29 09:31:45;;;;;;;;;;;13.30;99.90;;;;;;5101093;28;1506;-52
2021/11/29 09:34:31;;;;;;;;;;;13.20;99.90;;;;;;5100995;28;1518;-53
2021/11/29 09:37:20;;;;;;;;;;;13.20;99.90;;;;;;5101011;28;1448;-52
2021/11/29 09:40:08;;;;;;;;;;;13.20;99.90;;;;;;5100638;28;1624;-54
2021/11/29 09:42:54;;;;;;;;;;;13.20;99.90;;;;;;5100903;28;1800;-52
2021/11/29 09:45:41;;;;;;;;;;;13.20;99.90;;;;;;5091701;28;1607;-53
2021/11/29 09:48:27;;;;;;;;;;;13.20;99.90;;;;;;5082064;28;1918;-52
2021/11/29 09:51:13;;;;;;;;;;;13.30;99.90;;;;;;5099929;28;1487;-55
2021/11/29 09:53:59;;;;;;;;;;;13.40;99.90;;;;;;5100416;28;1654;-53
2021/11/29 09:56:45;;;;;;;;;;;13.50;99.90;;;;;;5100561;28;1507;-52
2021/11/29 09:59:31;;;;;;;;;;;13.60;99.90;;;;;;5103381;28;1450;-52
2021/11/29 10:02:17;;;;;;;;;;;13.70;99.90;;;;;;5104799;28;1512;-54
2021/11/29 10:05:03;;;;;;;;;;;13.80;99.90;;;;;;5104485;28;1446;-54
2021/11/29 10:07:50;;;;;;;;;;;13.90;99.90;;;;;;5100847;28;1625;-54
2021/11/29 10:10:36;;;;;;;;;;;13.90;99.90;;;;;;5104594;28;1466;-52
2021/11/29 10:13:23;;;;;;;;;;;14.00;99.90;;;;;;5104384;28;1568;-52
2021/11/29 10:16:08;;;;;;;;;;;14.00;99.90;;;;;;5104240;28;1650;-52
2021/11/29 10:18:54;;;;;;;;;;;14.00;99.90;;;;;;5104259;28;1521;-52
2021/11/29 10:21:40;;;;;;;;;;;14.00;99.90;;;;;;5104613;28;1673;-53
2021/11/29 10:24:31;;;;;;;;;;;14.00;99.90;;;;;;5104113;28;1612;-54
2021/11/29 10:27:18;;;;;;;;;;;13.90;99.90;;;;;;5091790;28;1485;-54
2021/11/29 10:30:04;;;;;;;;;;;13.90;99.90;;;;;;5089954;28;1965;-52
2021/11/29 10:32:50;;;;;;;;;;;13.80;99.90;;;;;;5104320;28;1414;-52
2021/11/29 10:35:36;;;;;;;;;;;13.80;99.90;;;;;;5104267;28;1569;-52
2021/11/29 10:38:28;;;;;;;;;;;13.70;99.90;;;;;;5103791;28;1513;-52
2021/11/29 10:41:19;;;;;;;;;;;13.70;99.90;;;;;;5103774;28;1526;-54
2021/11/29 10:44:07;;;;;;;;;;;13.60;99.90;;;;;;5132377;27;1572;-53
2021/11/29 10:46:57;;;;;;;;;;;13.50;99.90;;;;;;5103909;28;1394;-54
2021/11/29 10:49:45;;;;;;;;;;;13.50;99.90;;;;;;5085095;28;1905;-54
2021/11/29 10:52:33;;;;;;;;;;;13.40;99.90;;;;;;5071408;28;1395;-52
2021/11/29 10:55:19;;;;;;;;;;;13.40;99.90;;;;;;5098968;28;1438;-53
2021/11/29 10:58:05;;;;;;;;;;;13.30;99.90;;;;;;5103452;28;1458;-54
2021/11/29 11:00:51;;;;;;;;;;;13.20;99.90;;;;;;5104121;28;1434;-52
2021/11/29 11:03:56;;;;;;;;;;;13.20;99.90;;;;;;5103881;28;1466;-52
2021/11/29 11:06:44;;;;;;;;;;;13.10;99.90;;;;;;5103716;28;1581;-52
2021/11/29 11:09:35;;;;;;;;;;;13.10;99.90;;;;;;5102232;28;1972;-53
2021/11/29 11:12:23;;;;;;;;;;;13.00;99.90;;;;;;5103300;28;1478;-52
2021/11/29 11:15:10;;;;;;;;;;;13.00;99.90;;;;;;5103482;28;1391;-53
2021/11/29 11:17:58;;;;;;;;;;;12.90;99.90;;;;;;5097625;28;1656;-54
2021/11/29 11:20:47;;;;;;;;;;;12.90;99.90;;;;;;5072019;28;1669;-53
2021/11/29 11:23:33;;;;;;;;;;;12.90;99.90;;;;;;5102930;28;1783;-54
2021/11/29 11:26:29;;;;;;;;;;;12.90;99.90;;;;;;5103371;28;1543;-54
2021/11/29 11:29:29;;;;;;;;;;;12.90;99.90;;;;;;5102714;28;1906;-54
2021/11/29 11:32:23;;;;;;;;;;;12.90;99.90;;;;;;5102902;28;1549;-53
2021/11/29 11:35:11;;;;;;;;;;;13.00;99.90;;;;;;5102963;28;1406;-53
2021/11/29 11:37:58;;;;;;;;;;;13.10;99.90;;;;;;5103006;28;1442;-54
2021/11/29 11:40:45;;;;;;;;;;;13.20;99.90;;;;;;5102963;28;1456;-54
2021/11/29 11:43:31;;;;;;;;;;;13.30;99.90;;;;;;5102652;28;1443;-53
2021/11/29 11:46:18;;;;;;;;;;;13.40;99.90;;;;;;5102577;28;1463;-54
2021/11/29 11:49:04;;;;;;;;;;;13.50;99.90;;;;;;5102707;28;1957;-52
2021/11/29 11:51:50;;;;;;;;;;;13.60;99.90;;;;;;5102823;28;1488;-54
2021/11/29 11:54:40;;;;;;;;;;;13.60;99.90;;;;;;5102784;28;1474;-54
2021/11/29 11:57:27;;;;;;;;;;;13.60;99.90;;;;;;5083575;28;1597;-52
2021/11/29 12:00:33;;;;;;;;;;;13.60;99.90;;;;;;5099464;28;1443;-54
2021/11/29 12:03:19;;;;;;;;;;;13.60;99.90;;;;;;5102497;28;1440;-52
2021/11/29 12:06:07;;;;;;;;;;;13.60;99.90;;;;;;5102141;28;1427;-54
2021/11/29 12:08:56;;;;;;;;;;;13.50;99.90;;;;;;5102171;28;1909;-54
2021/11/29 12:11:46;;;;;;;;;;;13.50;99.90;;;;;;5102445;28;1436;-54
2021/11/29 12:14:34;;;;;;;;;;;13.50;99.90;;;;;;5101949;28;1430;-52
2021/11/29 12:17:20;;;;;;;;;;;13.40;99.90;;;;;;5087393;28;1400;-52
2021/11/29 12:20:10;;;;;;;;;;;13.40;99.90;;;;;;5088546;28;1599;-52
2021/11/29 12:22:56;;;;;;;;;;;13.30;99.90;;;;;;5101440;28;1609;-53
2021/11/29 12:25:46;;;;;;;;;;;13.30;99.90;;;;;;5089392;28;1435;-52
2021/11/29 12:28:39;;;;;;;;;;;13.20;99.90;;;;;;5101561;28;1905;-53
2021/11/29 12:31:36;;;;;;;;;;;13.20;99.90;;;;;;5101566;28;1756;-53
2021/11/29 12:34:40;;;;;;;;;;;13.10;99.90;;;;;;5101788;28;1428;-52
2021/11/29 12:37:26;;;;;;;;;;;13.10;99.90;;;;;;5102069;28;1656;-51
2021/11/29 12:40:12;;;;;;;;;;;13.00;99.90;;;;;;5083051;28;1579;-51
2021/11/29 12:43:00;;;;;;;;;;;13.00;99.90;;;;;;5100355;28;1448;-51
2021/11/29 12:45:46;;;;;;;;;;;12.90;99.90;;;;;;5101577;28;1580;-51
2021/11/29 12:48:35;;;;;;;;;;;12.90;99.90;;;;;;5101598;28;1902;-52
2021/11/29 12:51:40;;;;;;;;;;;12.80;99.90;;;;;;5086477;28;1423;-53
2021/11/29 12:54:35;;;;;;;;;;;12.80;99.90;;;;;;5109845;28;1493;-53
2021/11/29 12:57:22;;;;;;;;;;;12.80;99.90;;;;;;5084431;28;1455;-54
2021/11/29 13:00:25;;;;;;;;;;;12.80;99.90;;;;;;5099408;28;1469;-52
2021/11/29 13:03:13;;;;;;;;;;;12.70;99.90;;;;;;5101185;28;1051;-52
2021/11/29 13:06:03;;;;;;;;;;;12.70;99.90;;;;;;5100999;28;1514;-52
2021/11/29 13:08:58;;;;;;;;;;;12.70;99.90;;;;;;5129722;27;1910;-51
2021/11/29 13:11:44;;;;;;;;;;;12.60;99.90;;;;;;5101121;28;1442;-51
2021/11/29 13:14:31;;;;;;;;;;;12.60;99.90;;;;;;5100988;28;1446;-51
2021/11/29 13:17:17;;;;;;;;;;;12.70;99.90;;;;;;5087114;28;1666;-52
2021/11/29 13:20:05;;;;;;;;;;;12.70;99.90;;;;;;5092651;28;1561;-53
2021/11/29 13:22:51;;;;;;;;;;;12.70;99.90;;;;;;5082459;28;1454;-53
2021/11/29 13:25:36;;;;;;;;;;;12.70;99.90;;;;;;5100290;28;1547;-52
2021/11/29 13:28:22;;;;;;;;;;;12.70;99.90;;;;;;5100475;28;1651;-52
2021/11/29 13:31:09;;;;;;;;;;;12.70;99.90;;;;;;5100976;28;1527;-51
2021/11/29 13:33:55;;;;;;;;;;;12.80;99.90;;;;;;5100373;28;1435;-51
2021/11/29 13:36:42;;;;;;;;;;;12.90;99.90;;;;;;5085216;28;1455;-51
2021/11/29 13:39:33;;;;;;;;;;;13.00;99.90;;;;;;5078987;28;2047;-51
2021/11/29 13:42:30;;;;;;;;;;;13.20;99.90;;;;;;5097292;28;1453;-51
2021/11/29 13:45:18;;;;;;;;;;;13.20;99.90;;;;;;5100607;28;1568;-51
2021/11/29 13:48:10;;;;;;;;;;;13.30;99.90;;;;;;5101045;28;1474;-51
2021/11/29 13:50:56;;;;;;;;;;;13.30;99.90;;;;;;5100488;28;1711;-51
2021/11/29 13:53:45;;;;;;;;;;;13.30;99.90;;;;;;5100912;28;1434;-51
2021/11/29 13:56:32;;;;;;;;;;;13.30;99.90;;;;;;5100846;28;1590;-51
2021/11/29 13:59:18;;;;;;;;;;;13.30;99.90;;;;;;5100641;28;1435;-51
2021/11/29 14:02:09;;;;;;;;;;;13.20;99.90;;;;;;5100738;28;1641;-51
2021/11/29 14:04:55;;;;;;;;;;;13.20;99.90;;;;;;5101393;28;1547;-51
2021/11/29 14:07:54;;;;;;;;;;;13.10;99.90;;;;;;5100897;28;1592;-51
2021/11/29 14:10:42;;;;;;;;;;;13.10;99.90;;;;;;5100178;28;1918;-51
2021/11/29 14:13:36;;;;;;;;;;;13.00;99.90;;;;;;5100289;28;1454;-53
2021/11/29 14:16:26;;;;;;;;;;;13.00;99.90;;;;;;5086238;28;1404;-53
2021/11/29 14:19:13;;;;;;;;;;;13.00;99.90;;;;;;5100621;28;1387;-53
2021/11/29 14:21:59;;;;;;;;;;;12.90;99.90;;;;;;5100266;28;1546;-53
2021/11/29 14:24:45;;;;;;;;;;;12.90;99.90;;;;;;5100294;28;1663;-53
2021/11/29 14:27:31;;;;;;;;;;;12.80;99.90;;;;;;5081939;28;1683;-52
2021/11/29 14:30:17;;;;;;;;;;;12.80;99.90;;;;;;5081242;28;1906;-53
2021/11/29 14:33:03;;;;;;;;;;;12.80;99.90;;;;;;5096153;28;1598;-53
2021/11/29 14:35:49;;;;;;;;;;;12.70;99.90;;;;;;5100396;28;1416;-53
2021/11/29 14:38:45;;;;;;;;;;;12.70;99.90;;;;;;5100340;28;1458;-53
2021/11/29 14:41:44;;;;;;;;;;;12.70;99.90;;;;;;5086297;28;1554;-53
2021/11/29 14:44:39;;;;;;;;;;;12.60;99.90;;;;;;5101074;28;1440;-53
2021/11/29 14:47:29;;;;;;;;;;;12.60;99.90;;;;;;5104007;28;1535;-53
2021/11/29 14:50:16;;;;;;;;;;;12.50;99.90;;;;;;5101365;28;1930;-53
2021/11/29 14:53:03;;;;;;;;;;;12.50;99.90;;;;;;5086232;28;1573;-53
2021/11/29 14:55:49;;;;;;;;;;;12.50;99.90;;;;;;5102936;28;1571;-52
2021/11/29 14:58:35;;;;;;;;;;;12.50;99.90;;;;;;5103547;28;1683;-53
2021/11/29 15:01:21;;;;;;;;;;;12.50;99.90;;;;;;5092218;28;1531;-52
2021/11/29 15:04:20;;;;;;;;;;;12.50;99.90;;;;;;5103688;28;1455;-53
2021/11/29 15:07:08;;;;;;;;;;;12.60;99.90;;;;;;5103612;28;1459;-53
2021/11/29 15:09:59;;;;;;;;;;;12.70;99.90;;;;;;5103457;28;1906;-52
2021/11/29 15:12:50;;;;;;;;;;;12.80;99.90;;;;;;5113059;27;1417;-53
2021/11/29 15:15:36;;;;;;;;;;;12.90;99.90;;;;;;5102695;28;1462;-53
2021/11/29 15:18:27;;;;;;;;;;;13.00;99.90;;;;;;5103372;28;1571;-53
2021/11/29 15:21:30;;;;;;;;;;;13.10;99.90;;;;;;5103050;28;1467;-53
2021/11/29 15:24:27;;;;;;;;;;;13.10;99.90;;;;;;5102801;28;1453;-53
2021/11/29 15:27:32;;;;;;;;;;;13.10;99.90;;;;;;5076779;28;1467;-54
2021/11/29 15:30:28;;;;;;;;;;;13.10;99.90;;;;;;5101481;28;1910;-53
2021/11/29 15:33:15;;;;;;;;;;;13.10;99.90;;;;;;5102928;28;1462;-53
2021/11/29 15:36:04;;;;;;;;;;;13.10;99.90;;;;;;5102940;28;1646;-54
2021/11/29 15:38:53;;;;;;;;;;;13.00;99.90;;;;;;5088983;28;1447;-53
2021/11/29 15:41:49;;;;;;;;;;;13.00;99.90;;;;;;5102970;28;1433;-53
2021/11/29 15:44:35;;;;;;;;;;;13.00;99.90;;;;;;5102324;28;1506;-53
2021/11/29 15:47:21;;;;;;;;;;;13.00;99.90;;;;;;5102657;28;1474;-53
2021/11/29 15:50:07;;;;;;;;;;;12.90;99.90;;;;;;5102469;28;1957;-53
2021/11/29 15:52:55;;;;;;;;;;;12.90;99.90;;;;;;5102729;28;1590;-53
2021/11/29 15:55:41;;;;;;;;;;;12.90;99.90;;;;;;5101624;28;1427;-53
2021/11/29 15:58:28;;;;;;;;;;;12.90;99.90;;;;;;5102376;28;1441;-53
2021/11/29 16:01:15;;;;;;;;;;;12.90;99.90;;;;;;5102620;28;1574;-54
2021/11/29 16:04:02;;;;;;;;;;;12.80;99.90;;;;;;5102461;28;1375;-53
2021/11/29 16:06:49;;;;;;;;;;;12.80;99.90;;;;;;5102325;28;1482;-53